KLLQ

Details ICAO KLLQ
Name MONTICELLO MUNI ELLIS FLD
Region United States
Timezone America/Chicago (UTC-6.0)
Plans Departing 2
Arriving 4
Stats Elevation 270 ft / 82 m (AMSL)
Location 33.638565° -91.751014°
Runways 1
Magnetic Variation 0.009° W
Sunrise 2017-12-15 13:05:42 UTC / 2017-12-15 07:05:42 Local
Sunset 2017-12-15 23:01:38 UTC / 2017-12-15 17:01:38 Local
Advertisement - Login to hide

Runways

ID Width Length Bearing (true) Bearing (mag) Surface Threshold Offset Overrun Length
03 75 ft / 23 m 5,026 ft / 1,532 m 31.59° 31.60° Asphalt 0 ft / 0 m 0 ft / 0 m
21 75 ft / 23 m 5,026 ft / 1,532 m 211.59° 211.60° Asphalt 0 ft / 0 m 0 ft / 0 m

Map

Weather


0- 5 10 15 20 25 30 35+ Temperature / ° C

Clouds and Precipitation
Forecast for 2017-12-15 18:00 UTC. Updated 31 minutes ago

Ground ~20,000 ft ~40,000 ft Winds

METAR

KLLQ 151653Z AUTO 00000KT 10SM CLR 08/M04 A3029 RMK AO2 SLP257 T00781039

TAF

TAF KLLQ 151124Z 1512/1612 30003KT P6SM OVC250 FM151500 29007KT P6SM SCT250 FM160000 21003KT P6SM SKC

Frequencies

Recorded 133.32 MHz ASOS
Unicom 122.80 MHz CTAF/UNICOM
Warning: Do not use this data for real-world aviation or navigation. No guarantee of current accuracy is given.